This is the latest recevied weather packets stored in our database for station/object KB2UHF-8. If no packets are shown the sender has not sent any weather packets the latest 10 day(s).
| Time | Temp. | Humidity | Pressure | Rain* | Wind** | Luminosity | Snow |
|---|---|---|---|---|---|---|---|
| 1777523117 | 6.11° C | 53% | 1016.7 hPa | 0 mm | - | 0 W/m² | - |
| 1777521917 | 6.11° C | 53% | 1016.7 hPa | 0 mm | - | 0 W/m² | - |
| 1777518317 | 6.67° C | 52% | 1017 hPa | 0 mm | - | 0 W/m² | - |
| 1777516517 | 7.22° C | 50% | 1016.8 hPa | 0 mm | - | 0 W/m² | - |
| 1777515317 | 7.78° C | 49% | 1016.7 hPa | 0 mm | - | 0 W/m² | - |
| 1777513537 | 8.33° C | 48% | 1016.2 hPa | 0 mm | - | 0 W/m² | - |
| 1777511737 | 8.33° C | 47% | 1016.1 hPa | 0 mm | - | 0 W/m² | - |
| 1777508116 | 10° C | 44% | 1015.6 hPa | 0 mm | - | 66 W/m² | - |
| 1777503316 | 11.11° C | 41% | 1015.8 hPa | 0 mm | - | 352 W/m² | - |
| 1777500916 | 10° C | 43% | 1015.7 hPa | 0 mm | - | 126 W/m² | - |
| 1777499716 | 11.11° C | 40% | 1015.8 hPa | 0 mm | - | 190 W/m² | - |
| 1777496716 | 10° C | 58% | 1016 hPa | 0 mm | - | 305 W/m² | - |
| 1777496116 | 10° C | 55% | 1016 hPa | 0 mm | - | 240 W/m² | - |
| 1777494316 | 10° C | 54% | 1016.2 hPa | 0 mm | - | 258 W/m² | - |
| 1777487116 | 7.78° C | 70% | 1016.5 hPa | 0 mm | - | 440 W/m² | - |
| 1777485916 | 7.22° C | 75% | 1016.5 hPa | 0 mm | - | 456 W/m² | - |
| 1777479316 | 7.78° C | 64% | 1015.9 hPa | 0 mm | - | 361 W/m² | - |
| 1777477516 | 9.44° C | 57% | 1015.7 hPa | 0 mm | - | 730 W/m² | - |
| 1777473316 | 8.33° C | 56% | 1015.4 hPa | 0 mm | - | 600 W/m² | - |
| 1777469116 | 7.22° C | 62% | 1015.4 hPa | 0 mm | - | 396 W/m² | - |
| 1777466716 | 6.11° C | 73% | 1015.6 hPa | 0 mm | - | 255 W/m² | - |
| 1777459556 | 6.11° C | 73% | 1015.6 hPa | 0 mm | - | 0 W/m² | - |
| 1777457115 | 6.67° C | 73% | 1015.8 hPa | 0 mm | - | 0 W/m² | - |
| 1777455315 | 7.22° C | 71% | 1015.8 hPa | 0 mm | - | 0 W/m² | - |
| 1777454715 | 7.22° C | 69% | 1015.7 hPa | 0 mm | - | 0 W/m² | - |
* Rain latest hour (hover to see other rain measurements)
** Current wind speed in m/s (hover to see current wind gust speed)